Time;durP1;ratioP1;P1;durP2;ratioP2;P2;SDS_P1;SDS_P2;PMS_P1;PMS_P2;Temp;Humidity;BMP_temperature;BMP_pressure;BME280_temperature;BME280_humidity;BME280_pressure;Samples;Min_cycle;Max_cycle;Signal;HPM_P1;HPM_P2
2023/05/05 00:02:17;;;;;;;3.17;1.35;;;16.30;78.90;;;;;;5014985;28;20498;-73
2023/05/05 00:04:42;;;;;;;2.50;1.03;;;16.20;78.90;;;;;;5013495;28;20104;-72
2023/05/05 00:07:08;;;;;;;5.80;0.93;;;16.20;79.70;;;;;;5013017;28;20100;-72
2023/05/05 00:09:33;;;;;;;4.40;2.37;;;16.20;78.40;;;;;;5008047;28;20021;-72
2023/05/05 00:11:59;;;;;;;4.40;1.20;;;16.20;78.10;;;;;;5013951;28;20096;-73
2023/05/05 00:14:24;;;;;;;2.43;1.37;;;16.10;79.50;;;;;;5012072;28;20038;-72
2023/05/05 00:16:50;;;;;;;2.07;1.13;;;16.10;78.60;;;;;;5017026;28;20032;-71
2023/05/05 00:19:16;;;;;;;5.03;1.17;;;16.10;78.50;;;;;;5014925;28;20042;-72
2023/05/05 00:21:41;;;;;;;11.17;1.70;;;16.20;78.00;;;;;;5018778;28;20033;-72
2023/05/05 00:24:09;;;;;;;3.47;1.20;;;16.10;80.30;;;;;;5010394;28;20501;-72
2023/05/05 00:26:34;;;;;;;4.07;1.10;;;16.00;80.90;;;;;;5022014;28;20625;-72
2023/05/05 00:29:00;;;;;;;2.70;1.00;;;15.90;80.80;;;;;;5017079;28;20168;-72
2023/05/05 00:31:25;;;;;;;2.37;1.27;;;15.80;85.60;;;;;;5029424;28;20029;-72
2023/05/05 00:33:51;;;;;;;3.43;1.17;;;15.80;80.70;;;;;;5028477;28;20026;-72
2023/05/05 00:36:17;;;;;;;2.13;1.10;;;15.50;85.00;;;;;;5016810;28;20033;-73
2023/05/05 00:38:42;;;;;;;5.03;2.00;;;15.50;82.60;;;;;;5011873;28;20044;-72
2023/05/05 00:41:08;;;;;;;2.13;1.40;;;15.50;83.90;;;;;;5007237;28;20038;-72
2023/05/05 00:43:34;;;;;;;2.43;1.20;;;15.50;84.00;;;;;;5001718;28;20026;-72
2023/05/05 00:46:03;;;;;;;3.65;1.17;;;15.40;84.70;;;;;;5007397;28;20100;-72
2023/05/05 00:48:30;;;;;;;2.45;1.40;;;15.20;85.00;;;;;;5015380;28;20038;-72
2023/05/05 00:50:56;;;;;;;3.97;1.00;;;15.30;86.40;;;;;;5016018;28;20537;-72
2023/05/05 00:53:22;;;;;;;3.80;1.48;;;15.20;90.80;;;;;;5013198;28;20025;-71
2023/05/05 00:55:47;;;;;;;5.33;1.53;;;15.20;88.60;;;;;;5015239;28;20037;-72
2023/05/05 00:58:13;;;;;;;6.27;1.20;;;15.20;89.10;;;;;;5017830;28;20073;-72
2023/05/05 01:00:39;;;;;;;3.17;1.75;;;15.20;84.30;;;;;;5012468;28;20754;-72
2023/05/05 01:03:04;;;;;;;2.03;1.20;;;15.40;83.90;;;;;;5013676;28;20030;-71
2023/05/05 01:05:45;;;;;;;4.00;1.13;;;15.40;83.00;;;;;;5013176;28;20025;-74
2023/05/05 01:08:23;;;;;;;2.83;1.20;;;15.40;82.70;;;;;;5011915;28;20559;-72
2023/05/05 01:11:06;;;;;;;4.43;1.20;;;15.70;79.50;;;;;;5016842;28;20026;-72
2023/05/05 01:14:08;;;;;;;3.40;1.80;;;15.70;80.70;;;;;;5008024;28;20033;-72
2023/05/05 01:16:36;;;;;;;3.55;1.30;;;15.60;81.00;;;;;;5019459;28;20032;-72
2023/05/05 01:19:47;;;;;;;1.55;1.13;;;15.40;82.10;;;;;;5020736;28;20046;-73
2023/05/05 01:22:17;;;;;;;3.75;1.33;;;15.50;83.30;;;;;;5013428;28;20021;-71
2023/05/05 01:25:22;;;;;;;3.97;1.20;;;15.50;83.60;;;;;;5012020;28;20120;-72
2023/05/05 01:28:18;;;;;;;2.05;1.13;;;15.40;86.70;;;;;;5020637;28;20037;-72
2023/05/05 01:31:04;;;;;;;6.60;1.33;;;15.40;82.50;;;;;;5012023;28;20129;-72
2023/05/05 01:33:41;;;;;;;2.78;2.35;;;15.30;83.10;;;;;;5014642;28;20030;-71
2023/05/05 01:36:14;;;;;;;3.25;1.35;;;15.40;84.70;;;;;;5008632;28;20032;-72
2023/05/05 01:38:42;;;;;;;5.50;1.30;;;15.50;83.00;;;;;;5017326;28;20030;-71
2023/05/05 01:41:16;;;;;;;5.43;1.30;;;15.50;89.50;;;;;;5010905;28;20029;-72
2023/05/05 01:43:45;;;;;;;4.50;1.20;;;15.50;87.00;;;;;;5007085;28;20085;-72
2023/05/05 01:46:13;;;;;;;4.85;1.70;;;15.60;83.70;;;;;;5016520;28;20500;-72
2023/05/05 01:48:41;;;;;;;3.72;1.30;;;15.50;83.90;;;;;;5022928;28;20033;-72
2023/05/05 01:51:07;;;;;;;2.83;1.48;;;15.60;85.30;;;;;;5011563;28;20030;-72
2023/05/05 01:53:35;;;;;;;3.67;1.63;;;15.60;85.60;;;;;;5013374;28;20031;-72
2023/05/05 01:56:01;;;;;;;3.22;1.60;;;15.40;89.10;;;;;;5010504;28;20029;-72
2023/05/05 01:58:29;;;;;;;3.28;1.67;;;15.40;87.70;;;;;;5017556;28;20044;-73
2023/05/05 02:00:56;;;;;;;5.40;1.40;;;15.40;85.80;;;;;;5012898;28;20387;-72
2023/05/05 02:03:23;;;;;;;3.63;1.30;;;15.20;88.60;;;;;;5009180;28;20084;-73
2023/05/05 02:05:50;;;;;;;;;;;15.30;86.50;;;;;;5006081;28;20022;-73
2023/05/05 02:08:17;;;;;;;2.25;1.30;;;15.50;85.00;;;;;;5010939;28;20400;-71
2023/05/05 02:10:43;;;;;;;4.30;1.45;;;15.50;84.90;;;;;;5009496;28;20417;-72
2023/05/05 02:13:11;;;;;;;2.90;1.38;;;15.50;84.80;;;;;;5007623;28;20036;-72
2023/05/05 02:15:38;;;;;;;6.28;1.35;;;15.50;85.50;;;;;;5025760;28;20554;-72
2023/05/05 02:18:08;;;;;;;6.68;1.20;;;15.50;84.00;;;;;;5025235;28;20048;-71
2023/05/05 02:20:36;;;;;;;2.30;1.58;;;15.40;84.70;;;;;;5011569;28;20033;-72
2023/05/05 02:23:04;;;;;;;3.35;1.77;;;15.40;87.20;;;;;;4998274;28;20021;-72
2023/05/05 02:25:36;;;;;;;3.25;1.30;;;15.40;86.40;;;;;;5006313;28;20037;-71
2023/05/05 02:28:02;;;;;;;3.08;1.40;;;15.40;86.50;;;;;;5008037;28;20165;-72
2023/05/05 02:30:29;;;;;;;;;;;15.40;84.60;;;;;;5014128;28;20430;-73
2023/05/05 02:33:08;;;;;;;8.63;1.63;;;15.40;88.50;;;;;;5015570;28;19916;-73
2023/05/05 02:35:37;;;;;;;3.17;1.50;;;15.40;86.40;;;;;;5005832;28;20793;-72
2023/05/05 02:38:07;;;;;;;3.90;1.10;;;15.20;86.80;;;;;;5009340;28;20045;-71
2023/05/05 02:40:34;;;;;;;9.27;1.67;;;15.20;89.80;;;;;;5010719;28;20045;-73
2023/05/05 02:43:03;;;;;;;;;;;15.40;86.60;;;;;;5008790;28;20018;-72
2023/05/05 02:45:29;;;;;;;5.30;1.45;;;15.50;84.30;;;;;;5007770;28;19948;-71
2023/05/05 02:47:55;;;;;;;3.15;1.42;;;15.50;85.10;;;;;;5011893;28;20065;-72
2023/05/05 02:50:20;;;;;;;5.00;1.90;;;15.40;87.90;;;;;;5007316;28;20385;-72
2023/05/05 02:52:46;;;;;;;2.30;1.50;;;15.40;87.50;;;;;;5007245;28;20057;-72
2023/05/05 02:55:12;;;;;;;5.65;1.52;;;15.30;85.10;;;;;;5010278;28;20029;-71
2023/05/05 02:57:55;;;;;;;4.80;1.25;;;15.40;86.60;;;;;;5012751;28;20096;-73
2023/05/05 03:00:32;;;;;;;2.95;1.30;;;15.30;85.50;;;;;;5006481;28;20033;-73
2023/05/05 03:03:16;;;;;;;4.70;1.73;;;15.10;87.40;;;;;;5008277;28;20599;-73
2023/05/05 03:05:50;;;;;;;2.38;1.35;;;15.10;86.00;;;;;;5006894;28;20129;-74
2023/05/05 03:08:24;;;;;;;6.03;1.15;;;15.10;86.90;;;;;;5020937;28;20093;-74
2023/05/05 03:11:00;;;;;;;2.70;1.40;;;15.10;88.60;;;;;;5003548;28;20131;-74
2023/05/05 03:13:28;;;;;;;5.25;1.70;;;15.00;87.70;;;;;;5005028;28;20034;-74
2023/05/05 03:15:54;;;;;;;9.63;1.60;;;15.00;86.40;;;;;;5010907;28;20121;-73
2023/05/05 03:18:22;;;;;;;;;;;14.90;88.60;;;;;;5012978;28;20192;-72
2023/05/05 03:20:48;;;;;;;8.73;2.05;;;14.80;87.00;;;;;;5011004;28;19971;-71
2023/05/05 03:23:14;;;;;;;3.47;1.38;;;14.70;89.00;;;;;;5008302;28;20117;-72
2023/05/05 03:25:47;;;;;;;3.75;1.65;;;14.80;87.50;;;;;;5005331;28;20056;-72
2023/05/05 03:28:17;;;;;;;5.97;1.70;;;14.70;88.60;;;;;;5014557;28;20045;-73
2023/05/05 03:30:43;;;;;;;2.92;1.20;;;14.90;86.50;;;;;;5011161;28;20030;-72
2023/05/05 03:33:10;;;;;;;6.20;1.60;;;14.80;88.00;;;;;;5012628;28;20525;-73
2023/05/05 03:35:35;;;;;;;3.10;1.30;;;14.80;86.20;;;;;;5005124;28;20284;-71
2023/05/05 03:38:01;;;;;;;2.10;1.20;;;14.80;87.90;;;;;;5015314;28;20045;-73
2023/05/05 03:40:26;;;;;;;1.87;1.20;;;14.90;86.00;;;;;;5006379;28;20037;-72
2023/05/05 03:42:52;;;;;;;4.50;1.77;;;14.80;86.90;;;;;;5007090;28;20057;-73
2023/05/05 03:45:18;;;;;;;2.83;1.60;;;14.60;88.30;;;;;;5008100;28;20029;-74
2023/05/05 03:47:43;;;;;;;3.03;1.60;;;14.60;89.30;;;;;;5004917;28;20512;-72
2023/05/05 03:50:09;;;;;;;4.37;1.60;;;14.70;88.00;;;;;;5006067;28;20046;-72
2023/05/05 03:52:35;;;;;;;4.55;1.63;;;14.40;89.90;;;;;;5009143;28;20534;-74
2023/05/05 03:55:00;;;;;;;3.17;1.40;;;14.50;89.20;;;;;;5012379;28;20085;-74
2023/05/05 03:57:26;;;;;;;2.97;1.63;;;14.40;89.40;;;;;;5007449;28;20038;-74
2023/05/05 03:59:52;;;;;;;2.53;1.63;;;14.40;90.10;;;;;;5020930;28;20420;-74
2023/05/05 04:02:18;;;;;;;6.10;1.75;;;14.30;90.90;;;;;;5031738;28;20042;-72
2023/05/05 04:04:44;;;;;;;2.55;2.10;;;14.30;90.70;;;;;;5022118;28;20046;-72
2023/05/05 04:07:10;;;;;;;12.40;1.80;;;14.10;91.70;;;;;;5004388;28;20041;-72
2023/05/05 04:09:43;;;;;;;4.33;1.90;;;14.10;91.90;;;;;;5008872;28;20270;-73
2023/05/05 04:12:09;;;;;;;3.10;1.42;;;14.00;91.60;;;;;;5009179;28;20085;-72
2023/05/05 04:14:35;;;;;;;2.50;1.55;;;13.90;92.00;;;;;;5011002;28;20037;-72
2023/05/05 04:17:00;;;;;;;4.03;1.70;;;13.90;92.30;;;;;;5012855;28;20053;-72
2023/05/05 04:19:26;;;;;;;2.70;1.67;;;13.70;92.80;;;;;;5012060;28;20045;-72
2023/05/05 04:21:51;;;;;;;3.57;1.73;;;13.70;93.20;;;;;;5015197;28;20097;-71
2023/05/05 04:24:21;;;;;;;4.43;2.30;;;13.80;93.30;;;;;;5018289;28;20036;-71
2023/05/05 04:26:47;;;;;;;4.03;2.78;;;13.60;93.80;;;;;;5009019;28;20025;-71
2023/05/05 04:29:13;;;;;;;4.33;1.87;;;13.50;94.50;;;;;;5015637;28;20034;-72
2023/05/05 04:31:38;;;;;;;9.70;1.90;;;13.30;95.70;;;;;;5016278;28;20963;-70
2023/05/05 04:34:04;;;;;;;3.20;1.60;;;13.30;95.20;;;;;;5011029;28;20033;-72
2023/05/05 04:36:30;;;;;;;3.17;2.07;;;13.30;96.20;;;;;;5011208;28;20401;-72
2023/05/05 04:38:55;;;;;;;5.90;2.30;;;13.30;95.00;;;;;;5015813;28;20087;-72
2023/05/05 04:41:21;;;;;;;5.13;2.15;;;13.40;95.30;;;;;;5008633;28;20033;-72
2023/05/05 04:43:47;;;;;;;2.23;1.70;;;13.40;95.20;;;;;;5011085;28;20510;-72
2023/05/05 04:46:12;;;;;;;3.23;2.33;;;13.60;95.00;;;;;;5010112;28;20026;-71
2023/05/05 04:48:38;;;;;;;3.23;2.20;;;13.70;94.40;;;;;;5011722;28;20450;-72
2023/05/05 04:51:06;;;;;;;6.47;2.40;;;13.60;94.50;;;;;;5015470;28;20619;-73
2023/05/05 04:53:32;;;;;;;5.15;2.13;;;13.70;93.80;;;;;;5006291;28;20026;-71
2023/05/05 04:55:59;;;;;;;3.38;2.17;;;13.80;94.70;;;;;;5012741;28;20040;-73
2023/05/05 04:58:25;;;;;;;6.13;1.98;;;13.70;94.20;;;;;;5010871;28;20038;-72
2023/05/05 05:00:51;;;;;;;3.38;1.92;;;13.90;94.70;;;;;;5012025;28;20036;-70
2023/05/05 05:03:16;;;;;;;3.90;2.07;;;13.90;93.60;;;;;;5007517;28;20615;-73
2023/05/05 05:05:42;;;;;;;4.27;2.00;;;14.00;93.80;;;;;;5011645;28;20030;-72
2023/05/05 05:08:07;;;;;;;5.27;2.40;;;14.20;93.40;;;;;;5012395;28;20021;-73
2023/05/05 05:10:34;;;;;;;6.60;2.30;;;14.50;93.00;;;;;;5005602;28;20091;-71
2023/05/05 05:13:00;;;;;;;4.97;1.90;;;14.80;93.70;;;;;;5011691;28;20061;-74
2023/05/05 05:15:26;;;;;;;4.80;2.08;;;15.30;91.80;;;;;;5012365;28;20029;-72
2023/05/05 05:17:52;;;;;;;9.13;2.13;;;15.70;90.90;;;;;;5012659;28;20045;-73
2023/05/05 05:20:18;;;;;;;3.83;1.80;;;15.80;90.20;;;;;;5013870;28;20033;-73
2023/05/05 05:22:43;;;;;;;4.03;2.35;;;15.30;91.00;;;;;;5005878;28;20585;-73
2023/05/05 05:25:09;;;;;;;3.53;1.93;;;15.30;90.40;;;;;;5007543;28;20060;-73
2023/05/05 05:27:35;;;;;;;4.38;2.25;;;15.30;90.10;;;;;;5009390;28;20666;-70
2023/05/05 05:30:01;;;;;;;7.63;2.37;;;15.10;90.60;;;;;;5008000;28;20101;-73
2023/05/05 05:32:27;;;;;;;2.22;1.95;;;15.10;91.10;;;;;;5009252;28;20050;-73
2023/05/05 05:34:53;;;;;;;4.00;2.55;;;15.20;90.70;;;;;;5008031;28;20153;-72
2023/05/05 05:37:18;;;;;;;5.93;2.10;;;15.70;90.00;;;;;;5003614;28;20529;-73
2023/05/05 05:39:50;;;;;;;4.60;2.40;;;16.20;88.10;;;;;;5014371;28;20039;-73
2023/05/05 05:42:16;;;;;;;8.70;1.98;;;16.80;86.00;;;;;;5008467;28;20510;-71
2023/05/05 05:44:42;;;;;;;10.67;2.50;;;16.70;84.70;;;;;;5010024;28;20072;-73
2023/05/05 05:47:07;;;;;;;3.27;2.03;;;17.60;81.50;;;;;;5027005;28;20033;-75
2023/05/05 05:49:33;;;;;;;3.70;1.97;;;17.50;82.30;;;;;;5027040;28;20029;-71
2023/05/05 05:51:58;;;;;;;9.73;2.57;;;17.50;82.30;;;;;;5025245;28;20088;-72
2023/05/05 05:54:24;;;;;;;4.23;2.30;;;17.80;81.50;;;;;;5014862;28;20572;-73
2023/05/05 05:56:50;;;;;;;7.50;2.60;;;19.00;78.00;;;;;;5008754;28;20040;-72
2023/05/05 05:59:16;;;;;;;6.80;2.42;;;19.70;74.20;;;;;;5009732;28;20045;-72
2023/05/05 06:01:41;;;;;;;4.73;2.10;;;19.10;77.40;;;;;;5009367;28;20652;-71
2023/05/05 06:04:07;;;;;;;7.23;2.33;;;19.00;77.60;;;;;;5007860;28;20036;-73
2023/05/05 06:06:33;;;;;;;3.77;2.20;;;19.30;77.70;;;;;;5007211;28;20152;-72
2023/05/05 06:08:59;;;;;;;6.45;2.60;;;19.50;76.00;;;;;;5003539;28;20057;-70
2023/05/05 06:11:24;;;;;;;7.37;2.70;;;19.10;77.00;;;;;;5006593;28;20592;-72
2023/05/05 06:13:50;;;;;;;12.37;2.63;;;19.20;77.10;;;;;;5007710;28;20041;-72
2023/05/05 06:16:15;;;;;;;8.50;2.13;;;20.20;78.00;;;;;;5007409;28;20398;-73
2023/05/05 06:18:41;;;;;;;9.00;2.33;;;20.50;71.90;;;;;;5015830;28;20103;-73
2023/05/05 06:21:07;;;;;;;5.80;1.93;;;20.00;74.00;;;;;;5004059;28;20061;-75
2023/05/05 06:23:33;;;;;;;5.13;2.23;;;20.50;74.10;;;;;;5004803;28;20379;-72
2023/05/05 06:25:58;;;;;;;6.00;1.50;;;20.70;70.20;;;;;;5006115;28;20811;-74
2023/05/05 06:28:24;;;;;;;5.63;1.87;;;20.80;67.90;;;;;;5007895;28;20312;-74
2023/05/05 06:30:50;;;;;;;6.30;1.53;;;20.90;71.50;;;;;;5006954;28;20164;-72
2023/05/05 06:33:16;;;;;;;5.15;1.80;;;20.30;67.50;;;;;;5012793;28;20045;-71
2023/05/05 06:35:41;;;;;;;4.13;1.80;;;20.90;72.40;;;;;;5006787;28;20502;-71
2023/05/05 06:38:08;;;;;;;6.47;2.20;;;21.00;71.60;;;;;;5004902;28;20038;-75
2023/05/05 06:40:34;;;;;;;18.15;2.83;;;21.40;70.40;;;;;;5007788;28;20449;-71
2023/05/05 06:43:00;;;;;;;9.20;2.38;;;21.20;75.10;;;;;;5004632;28;20034;-75
2023/05/05 06:45:25;;;;;;;11.17;2.67;;;21.50;74.80;;;;;;5007896;28;20069;-75
2023/05/05 06:47:51;;;;;;;7.40;2.50;;;20.90;75.00;;;;;;5006388;28;20297;-74
2023/05/05 06:50:17;;;;;;;3.08;2.10;;;20.60;76.30;;;;;;5002345;28;20292;-74
2023/05/05 06:52:43;;;;;;;22.30;3.28;;;21.30;76.70;;;;;;5010089;28;20044;-73
2023/05/05 06:55:09;;;;;;;5.00;1.80;;;20.90;77.30;;;;;;5004273;28;20037;-76
2023/05/05 06:57:34;;;;;;;7.10;1.83;;;20.70;77.10;;;;;;5007037;28;20293;-72
2023/05/05 07:00:04;;;;;;;8.03;2.07;;;20.70;78.10;;;;;;5008534;28;20116;-75
2023/05/05 07:02:30;;;;;;;3.63;1.75;;;20.60;78.50;;;;;;5010777;28;20022;-74
2023/05/05 07:04:55;;;;;;;8.30;2.10;;;20.50;76.80;;;;;;5005265;28;20033;-73
2023/05/05 07:07:21;;;;;;;5.67;2.10;;;20.50;71.30;;;;;;5004021;28;20461;-73
2023/05/05 07:09:47;;;;;;;8.10;1.77;;;21.20;75.30;;;;;;5010597;28;20523;-71
2023/05/05 07:12:12;;;;;;;2.57;1.77;;;21.40;73.60;;;;;;5010916;28;20026;-71
2023/05/05 07:14:38;;;;;;;3.23;1.63;;;21.20;71.20;;;;;;5009509;28;20508;-70
2023/05/05 07:17:04;;;;;;;2.43;1.33;;;21.10;70.70;;;;;;5001802;28;20033;-70
2023/05/05 07:19:30;;;;;;;5.97;1.67;;;21.00;65.60;;;;;;5006019;28;20041;-69
2023/05/05 07:21:55;;;;;;;3.50;1.33;;;21.10;70.50;;;;;;5008113;28;20087;-73
2023/05/05 07:24:22;;;;;;;5.57;1.70;;;21.60;68.90;;;;;;5009345;28;20034;-71
2023/05/05 07:26:48;;;;;;;6.28;1.13;;;22.30;67.00;;;;;;5010735;28;20353;-72
2023/05/05 07:29:14;;;;;;;1.73;1.10;;;21.90;65.90;;;;;;5003084;28;20036;-71
2023/05/05 07:31:40;;;;;;;10.40;1.42;;;21.80;63.60;;;;;;5031113;28;20022;-73
2023/05/05 07:34:05;;;;;;;5.70;1.50;;;21.70;66.20;;;;;;5020877;28;20368;-71
2023/05/05 07:36:31;;;;;;;10.67;1.70;;;21.50;66.90;;;;;;5016698;28;20062;-73
2023/05/05 07:38:57;;;;;;;2.40;1.77;;;21.70;64.80;;;;;;5005727;28;20041;-72
2023/05/05 07:41:23;;;;;;;2.90;1.30;;;22.10;65.50;;;;;;5005694;28;20030;-70
2023/05/05 07:43:48;;;;;;;2.80;1.30;;;22.30;67.70;;;;;;5010708;28;20049;-72
2023/05/05 07:46:14;;;;;;;4.43;1.47;;;22.40;66.10;;;;;;5007606;28;20038;-73
2023/05/05 07:48:40;;;;;;;3.93;1.50;;;22.40;64.20;;;;;;5015236;28;20506;-72
2023/05/05 07:51:06;;;;;;;7.43;1.13;;;23.00;64.10;;;;;;5012638;28;20319;-71
2023/05/05 07:53:31;;;;;;;13.60;1.92;;;22.50;65.70;;;;;;5015432;28;20036;-70
2023/05/05 07:55:57;;;;;;;3.42;1.50;;;22.60;63.60;;;;;;5013338;28;20109;-72
2023/05/05 07:58:23;;;;;;;2.40;1.30;;;23.20;65.10;;;;;;5016405;28;20699;-73
2023/05/05 08:00:49;;;;;;;3.73;1.60;;;23.40;62.80;;;;;;5013737;28;20128;-72
2023/05/05 08:03:15;;;;;;;4.00;0.98;;;22.90;63.10;;;;;;5013326;28;20096;-70
2023/05/05 08:05:41;;;;;;;3.67;1.10;;;23.00;62.70;;;;;;5010376;28;20098;-70
2023/05/05 08:08:07;;;;;;;4.60;1.10;;;22.50;63.40;;;;;;5005452;28;20553;-70
2023/05/05 08:10:32;;;;;;;3.15;1.20;;;22.50;62.30;;;;;;5010957;28;20073;-72
2023/05/05 08:12:58;;;;;;;2.75;1.20;;;22.90;61.50;;;;;;5010976;28;20504;-71
2023/05/05 08:15:24;;;;;;;1.53;1.23;;;23.50;63.10;;;;;;5001592;28;20085;-71
2023/05/05 08:17:51;;;;;;;2.27;1.40;;;23.70;64.20;;;;;;5003014;28;20975;-71
2023/05/05 08:20:18;;;;;;;4.13;1.70;;;23.20;60.10;;;;;;5005379;28;20041;-71
2023/05/05 08:22:45;;;;;;;2.25;1.20;;;23.90;65.90;;;;;;5001521;28;20034;-70
2023/05/05 08:25:11;;;;;;;2.78;1.13;;;23.80;62.90;;;;;;5003637;28;20049;-71
2023/05/05 08:27:38;;;;;;;2.75;1.20;;;22.80;62.10;;;;;;5002614;28;20529;-71
2023/05/05 08:30:05;;;;;;;4.47;1.33;;;23.60;62.10;;;;;;5004647;28;20037;-71
2023/05/05 08:32:31;;;;;;;3.88;1.10;;;23.70;60.80;;;;;;5000539;28;20580;-70
2023/05/05 08:34:56;;;;;;;2.10;1.30;;;23.60;61.20;;;;;;5002052;28;20164;-72
2023/05/05 08:37:22;;;;;;;5.00;1.00;;;23.00;62.50;;;;;;5004646;28;20116;-72
2023/05/05 08:39:48;;;;;;;4.50;1.60;;;23.80;62.20;;;;;;5003723;28;20308;-71
2023/05/05 08:42:13;;;;;;;4.60;1.90;;;24.80;62.30;;;;;;5000973;28;20293;-71
2023/05/05 08:44:39;;;;;;;4.28;1.27;;;26.20;58.50;;;;;;5005037;28;20060;-72
2023/05/05 08:47:08;;;;;;;1.70;1.20;;;25.50;56.40;;;;;;5003197;28;20455;-70
2023/05/05 08:49:46;;;;;;;13.95;1.85;;;26.20;58.70;;;;;;5003872;28;20034;-71
2023/05/05 08:52:23;;;;;;;6.18;1.42;;;25.50;59.20;;;;;;5003627;28;20030;-71
2023/05/05 08:55:01;;;;;;;2.15;0.95;;;27.20;57.70;;;;;;4999554;28;20509;-70
2023/05/05 08:57:40;;;;;;;2.17;1.25;;;26.50;58.40;;;;;;5002688;28;20549;-70
2023/05/05 09:00:08;;;;;;;2.72;1.30;;;26.30;58.80;;;;;;5003160;28;20030;-69
2023/05/05 09:02:35;;;;;;;3.65;1.35;;;27.60;57.80;;;;;;4982312;28;20044;-71
2023/05/05 09:05:03;;;;;;;4.03;1.38;;;26.40;55.60;;;;;;5001603;28;20753;-71
2023/05/05 09:07:31;;;;;;;5.72;1.02;;;25.30;58.60;;;;;;5002629;28;20026;-70
2023/05/05 09:09:58;;;;;;;2.95;1.50;;;25.30;60.50;;;;;;5003432;28;20065;-70
2023/05/05 09:12:28;;;;;;;2.92;1.45;;;25.90;58.30;;;;;;5004885;28;20056;-71
2023/05/05 09:14:54;;;;;;;20.42;2.03;;;26.60;56.90;;;;;;5020040;28;20021;-71
2023/05/05 09:17:25;;;;;;;14.05;2.50;;;29.40;56.40;;;;;;5004800;28;20034;-71
2023/05/05 09:20:03;;;;;;;11.82;2.13;;;31.20;54.10;;;;;;5002263;28;20033;-69
2023/05/05 09:22:37;;;;;;;12.00;2.30;;;28.70;58.40;;;;;;5004283;28;20579;-73
2023/05/05 09:25:05;;;;;;;13.35;2.97;;;28.20;55.20;;;;;;5003604;28;20029;-73
2023/05/05 09:27:39;;;;;;;2.90;1.45;;;30.00;54.80;;;;;;5001892;28;20176;-72
2023/05/05 09:30:06;;;;;;;7.40;1.88;;;31.50;52.40;;;;;;4998464;28;20116;-73
2023/05/05 09:32:49;;;;;;;4.93;1.15;;;33.40;50.00;;;;;;5000234;28;20038;-69
2023/05/05 09:35:15;;;;;;;8.68;1.70;;;32.60;49.70;;;;;;4999424;28;20037;-74
2023/05/05 09:37:42;;;;;;;2.47;1.27;;;32.30;49.50;;;;;;5001401;28;20057;-73
2023/05/05 09:40:08;;;;;;;8.20;1.52;;;32.20;49.20;;;;;;5002907;28;20034;-72
2023/05/05 09:42:36;;;;;;;3.25;1.30;;;33.00;49.60;;;;;;4999763;28;20030;-72
2023/05/05 09:45:03;;;;;;;2.13;1.17;;;35.00;49.50;;;;;;5004606;28;20132;-72
2023/05/05 09:47:36;;;;;;;4.05;1.50;;;34.70;48.50;;;;;;5001388;28;20104;-70
2023/05/05 09:50:02;;;;;;;1.70;1.20;;;35.50;47.10;;;;;;5003264;28;20121;-72
2023/05/05 09:52:29;;;;;;;5.03;2.10;;;34.30;48.40;;;;;;5002000;28;20525;-72
2023/05/05 09:54:58;;;;;;;3.67;1.40;;;34.40;47.50;;;;;;5000641;28;20030;-72
2023/05/05 09:57:32;;;;;;;4.97;1.40;;;35.70;48.00;;;;;;4999852;28;20072;-74
2023/05/05 10:00:00;;;;;;;2.17;1.40;;;35.50;47.80;;;;;;5003540;28;20030;-75
2023/05/05 10:02:35;;;;;;;2.97;1.40;;;35.30;45.90;;;;;;4998700;28;20347;-73
2023/05/05 10:05:13;;;;;;;3.30;1.45;;;35.80;45.70;;;;;;5000807;28;20514;-74
2023/05/05 10:07:42;;;;;;;3.78;1.65;;;35.10;45.00;;;;;;5000113;28;20128;-73
2023/05/05 10:10:10;;;;;;;1.70;1.10;;;34.90;45.00;;;;;;4998313;28;20025;-74
2023/05/05 10:12:36;;;;;;;3.45;1.20;;;34.10;45.40;;;;;;5001916;28;20034;-73
2023/05/05 10:15:04;;;;;;;4.13;1.10;;;34.40;45.50;;;;;;5000591;28;20034;-73
2023/05/05 10:17:32;;;;;;;3.60;1.13;;;36.20;46.30;;;;;;4999887;28;20033;-70
2023/05/05 10:20:02;;;;;;;2.15;1.00;;;35.00;44.20;;;;;;4999669;28;20134;-71
2023/05/05 10:22:42;;;;;;;3.15;1.10;;;34.50;45.60;;;;;;4998972;28;20037;-72
2023/05/05 10:25:12;;;;;;;2.55;1.50;;;34.40;45.00;;;;;;5026241;28;20505;-70
2023/05/05 10:27:44;;;;;;;1.83;1.00;;;35.60;43.90;;;;;;5000240;28;20029;-71
2023/05/05 10:30:21;;;;;;;4.97;1.20;;;36.20;43.30;;;;;;4998034;28;20032;-77
2023/05/05 10:32:49;;;;;;;4.85;1.20;;;35.10;45.20;;;;;;4999249;28;20038;-75
2023/05/05 10:35:26;;;;;;;2.53;1.08;;;34.60;43.80;;;;;;5001632;28;20026;-76
2023/05/05 10:37:53;;;;;;;3.00;1.25;;;34.20;44.40;;;;;;5002119;28;20060;-76
2023/05/05 10:40:21;;;;;;;1.83;0.93;;;32.60;48.10;;;;;;4999751;28;20160;-75
2023/05/05 10:42:48;;;;;;;1.58;0.90;;;30.00;46.80;;;;;;4999653;28;20549;-72
2023/05/05 10:45:15;;;;;;;2.13;0.90;;;28.40;52.30;;;;;;4999083;28;20525;-73
2023/05/05 10:47:40;;;;;;;3.00;1.00;;;28.30;48.50;;;;;;4997973;28;20486;-70
2023/05/05 10:50:32;;;;;;;4.30;2.25;;;27.80;48.20;;;;;;4999435;28;20040;-76
2023/05/05 10:53:07;;;;;;;2.08;1.00;;;27.50;48.20;;;;;;4997370;28;20513;-72
2023/05/05 10:56:04;;;;;;;4.32;1.02;;;28.10;49.90;;;;;;4998629;28;20111;-70
2023/05/05 10:58:32;;;;;;;1.48;0.88;;;27.80;47.90;;;;;;5009228;28;20030;-72
2023/05/05 11:00:58;;;;;;;7.80;0.95;;;27.30;47.40;;;;;;5020095;28;20061;-71
2023/05/05 11:03:25;;;;;;;2.28;1.17;;;27.20;48.50;;;;;;5013312;28;20941;-76
2023/05/05 11:06:02;;;;;;;3.42;0.98;;;27.10;47.70;;;;;;5002402;28;20030;-77
2023/05/05 11:08:31;;;;;;;1.15;0.80;;;27.00;49.40;;;;;;4998715;28;20037;-73
2023/05/05 11:10:57;;;;;;;2.10;1.00;;;27.20;48.10;;;;;;5001764;28;20148;-75
2023/05/05 11:13:23;;;;;;;3.13;1.02;;;27.80;49.10;;;;;;4999688;28;20068;-76
2023/05/05 11:15:51;;;;;;;2.03;1.02;;;27.20;50.50;;;;;;5001536;28;20109;-75
2023/05/05 11:18:43;;;;;;;2.22;1.08;;;26.60;51.20;;;;;;4999242;28;20060;-72
2023/05/05 11:21:14;;;;;;;2.90;0.85;;;26.80;49.50;;;;;;4994142;28;20088;-70
2023/05/05 11:23:47;;;;;;;3.03;1.00;;;26.90;49.80;;;;;;5000128;28;20411;-72
2023/05/05 11:26:14;;;;;;;2.08;0.90;;;27.00;51.10;;;;;;4999845;28;20402;-72
2023/05/05 11:28:57;;;;;;;3.22;0.93;;;27.40;49.10;;;;;;4998952;28;20037;-73
2023/05/05 11:31:25;;;;;;;4.00;0.98;;;27.30;49.60;;;;;;4998669;28;20077;-73
2023/05/05 11:33:51;;;;;;;1.27;0.88;;;26.80;50.40;;;;;;5000161;28;20026;-74
2023/05/05 11:36:19;;;;;;;1.67;0.90;;;27.00;50.20;;;;;;4999647;28;20092;-77
2023/05/05 11:39:06;;;;;;;1.30;0.80;;;27.00;50.90;;;;;;4997961;28;20037;-73
2023/05/05 11:41:41;;;;;;;2.92;1.20;;;27.20;51.00;;;;;;4996554;28;20030;-75
2023/05/05 11:44:14;;;;;;;7.63;1.00;;;27.20;51.10;;;;;;5000830;28;20510;-74
2023/05/05 11:47:00;;;;;;;6.07;1.27;;;27.30;51.60;;;;;;4999679;28;20121;-75
2023/05/05 11:49:31;;;;;;;2.22;1.10;;;27.00;53.60;;;;;;5000960;28;20083;-74
2023/05/05 11:52:04;;;;;;;4.78;1.10;;;27.20;51.00;;;;;;4998637;28;20755;-73
2023/05/05 11:54:30;;;;;;;2.80;1.08;;;27.00;52.10;;;;;;5000731;28;20406;-72
2023/05/05 11:56:57;;;;;;;;;;;27.10;50.60;;;;;;5000907;28;20030;-71
2023/05/05 11:59:23;;;;;;;2.83;1.10;;;26.90;50.60;;;;;;4997740;28;20011;-74
2023/05/05 12:01:49;;;;;;;1.23;0.93;;;26.70;50.40;;;;;;4996609;28;20049;-73
2023/05/05 12:04:15;;;;;;;5.22;0.90;;;26.90;51.30;;;;;;4997231;28;20565;-72
2023/05/05 12:06:42;;;;;;;3.75;1.17;;;27.00;51.20;;;;;;5001266;28;20042;-74
2023/05/05 12:09:19;;;;;;;4.10;1.05;;;27.40;51.90;;;;;;5000000;28;20340;-74
2023/05/05 12:11:53;;;;;;;1.38;0.90;;;27.70;51.40;;;;;;4999653;28;20050;-74
2023/05/05 12:14:19;;;;;;;1.50;0.98;;;27.40;50.70;;;;;;4999321;28;20117;-76
2023/05/05 12:16:55;;;;;;;3.80;1.08;;;27.00;51.40;;;;;;4997678;28;20073;-75
2023/05/05 12:19:21;;;;;;;3.58;1.15;;;26.60;52.20;;;;;;4997828;28;20053;-72
2023/05/05 12:21:47;;;;;;;1.92;1.08;;;26.60;51.50;;;;;;5003425;28;20106;-74
2023/05/05 12:24:13;;;;;;;2.42;1.15;;;26.60;51.50;;;;;;5003891;28;20037;-73
2023/05/05 12:26:39;;;;;;;6.10;1.08;;;26.60;51.40;;;;;;5004607;28;20239;-76
2023/05/05 12:29:04;;;;;;;8.13;1.20;;;26.70;51.30;;;;;;5001658;28;20041;-73
2023/05/05 12:31:37;;;;;;;1.48;1.00;;;27.00;50.90;;;;;;5002610;28;20410;-74
2023/05/05 12:34:05;;;;;;;3.25;1.00;;;26.90;51.80;;;;;;5001440;28;20542;-72
2023/05/05 12:36:32;;;;;;;6.43;1.10;;;26.90;52.10;;;;;;5001679;28;20034;-73
2023/05/05 12:38:58;;;;;;;1.38;0.80;;;26.60;51.50;;;;;;4999343;28;20454;-74
2023/05/05 12:41:24;;;;;;;2.33;1.00;;;26.50;52.60;;;;;;5002824;28;20164;-76
2023/05/05 12:44:00;;;;;;;1.20;0.80;;;26.90;52.00;;;;;;5003440;28;20096;-72
2023/05/05 12:46:28;;;;;;;5.35;1.10;;;26.80;52.70;;;;;;5002442;28;20030;-74
2023/05/05 12:49:05;;;;;;;6.10;1.05;;;26.40;51.40;;;;;;4999562;28;20033;-73
2023/05/05 12:51:35;;;;;;;2.17;1.02;;;26.30;53.40;;;;;;5004686;28;20028;-71
2023/05/05 12:54:08;;;;;;;3.63;1.00;;;26.30;54.10;;;;;;5023322;28;20029;-72
2023/05/05 12:56:40;;;;;;;3.47;2.03;;;26.70;51.20;;;;;;5024932;28;20049;-74